Terminal Aerodrome Forecast
Issued by NWS

Home | Current Version | Previous Version | Graphics & Text | Print | Product List | Glossary On
Versions: 1 2 3 4 5 6 7 8 9 10 11 12 13 14 15 16
000
FTUS43 KBIS 230500
TAFJMS
TAF
KJMS 230533Z 2306/2406 27013KT P6SM BKN090
     FM230700 28013KT P6SM VCSH SCT050 BKN090
     FM231000 31013KT P6SM SCT100=

USA.gov is the U.S. government's official web portal to all federal, state and local government web resources and services.